sensor_id;sensor_type;location;lat;lon;timestamp;P1;durP1;ratioP1;P2;durP2;ratioP2
5333;SDS011;2689;50.954;7.116;2023-06-10T00:02:00;10.70;;;6.80;;
5333;SDS011;2689;50.954;7.116;2023-06-10T00:04:27;9.30;;;7.20;;
5333;SDS011;2689;50.954;7.116;2023-06-10T00:06:53;7.23;;;6.53;;
5333;SDS011;2689;50.954;7.116;2023-06-10T00:09:20;14.90;;;7.37;;
5333;SDS011;2689;50.954;7.116;2023-06-10T00:11:47;8.50;;;6.70;;
5333;SDS011;2689;50.954;7.116;2023-06-10T00:14:14;6.93;;;6.30;;
5333;SDS011;2689;50.954;7.116;2023-06-10T00:16:42;9.73;;;6.80;;
5333;SDS011;2689;50.954;7.116;2023-06-10T00:19:09;7.30;;;6.50;;
5333;SDS011;2689;50.954;7.116;2023-06-10T00:21:38;9.30;;;6.60;;
5333;SDS011;2689;50.954;7.116;2023-06-10T00:24:06;9.87;;;6.30;;
5333;SDS011;2689;50.954;7.116;2023-06-10T00:26:36;9.73;;;6.77;;
5333;SDS011;2689;50.954;7.116;2023-06-10T00:29:03;9.93;;;7.10;;
5333;SDS011;2689;50.954;7.116;2023-06-10T00:31:30;6.73;;;6.10;;
5333;SDS011;2689;50.954;7.116;2023-06-10T00:33:58;9.50;;;6.63;;
5333;SDS011;2689;50.954;7.116;2023-06-10T00:36:25;9.00;;;7.47;;
5333;SDS011;2689;50.954;7.116;2023-06-10T00:38:51;9.00;;;6.60;;
5333;SDS011;2689;50.954;7.116;2023-06-10T00:41:18;7.20;;;6.50;;
5333;SDS011;2689;50.954;7.116;2023-06-10T00:43:45;7.67;;;6.70;;
5333;SDS011;2689;50.954;7.116;2023-06-10T00:46:12;8.70;;;7.63;;
5333;SDS011;2689;50.954;7.116;2023-06-10T00:48:40;8.90;;;6.80;;
5333;SDS011;2689;50.954;7.116;2023-06-10T00:51:09;8.63;;;7.63;;
5333;SDS011;2689;50.954;7.116;2023-06-10T00:53:37;9.63;;;7.03;;
5333;SDS011;2689;50.954;7.116;2023-06-10T00:56:06;7.20;;;6.50;;
5333;SDS011;2689;50.954;7.116;2023-06-10T00:58:34;8.73;;;7.43;;
5333;SDS011;2689;50.954;7.116;2023-06-10T01:01:01;11.10;;;6.80;;
5333;SDS011;2689;50.954;7.116;2023-06-10T01:03:29;8.13;;;7.00;;
5333;SDS011;2689;50.954;7.116;2023-06-10T01:05:57;9.47;;;6.93;;
5333;SDS011;2689;50.954;7.116;2023-06-10T01:08:32;7.23;;;6.53;;
5333;SDS011;2689;50.954;7.116;2023-06-10T01:11:07;8.80;;;6.83;;
5333;SDS011;2689;50.954;7.116;2023-06-10T01:13:38;7.20;;;6.50;;
5333;SDS011;2689;50.954;7.116;2023-06-10T01:16:07;8.53;;;6.47;;
5333;SDS011;2689;50.954;7.116;2023-06-10T01:18:35;9.13;;;7.50;;
5333;SDS011;2689;50.954;7.116;2023-06-10T01:21:03;7.67;;;6.87;;
5333;SDS011;2689;50.954;7.116;2023-06-10T01:23:35;15.30;;;7.00;;
5333;SDS011;2689;50.954;7.116;2023-06-10T01:26:03;9.20;;;7.00;;
5333;SDS011;2689;50.954;7.116;2023-06-10T01:28:36;8.53;;;7.33;;
5333;SDS011;2689;50.954;7.116;2023-06-10T01:31:12;9.23;;;6.80;;
5333;SDS011;2689;50.954;7.116;2023-06-10T01:33:43;7.80;;;7.00;;
5333;SDS011;2689;50.954;7.116;2023-06-10T01:36:12;16.23;;;6.87;;
5333;SDS011;2689;50.954;7.116;2023-06-10T01:38:41;9.03;;;6.90;;
5333;SDS011;2689;50.954;7.116;2023-06-10T01:41:10;9.80;;;7.33;;
5333;SDS011;2689;50.954;7.116;2023-06-10T01:43:38;8.63;;;7.10;;
5333;SDS011;2689;50.954;7.116;2023-06-10T01:46:05;7.60;;;6.30;;
5333;SDS011;2689;50.954;7.116;2023-06-10T01:48:32;9.20;;;6.93;;
5333;SDS011;2689;50.954;7.116;2023-06-10T01:51:00;10.77;;;6.60;;
5333;SDS011;2689;50.954;7.116;2023-06-10T01:53:27;7.83;;;6.23;;
5333;SDS011;2689;50.954;7.116;2023-06-10T01:55:55;7.60;;;6.57;;
5333;SDS011;2689;50.954;7.116;2023-06-10T01:58:22;7.80;;;7.00;;
5333;SDS011;2689;50.954;7.116;2023-06-10T02:00:49;9.13;;;6.40;;
5333;SDS011;2689;50.954;7.116;2023-06-10T02:03:15;9.40;;;6.90;;
5333;SDS011;2689;50.954;7.116;2023-06-10T02:05:43;10.73;;;6.27;;
5333;SDS011;2689;50.954;7.116;2023-06-10T02:08:10;10.67;;;6.83;;
5333;SDS011;2689;50.954;7.116;2023-06-10T02:10:36;8.40;;;6.63;;
5333;SDS011;2689;50.954;7.116;2023-06-10T02:13:04;7.97;;;7.17;;
5333;SDS011;2689;50.954;7.116;2023-06-10T02:15:31;8.00;;;6.40;;
5333;SDS011;2689;50.954;7.116;2023-06-10T02:17:58;8.20;;;7.33;;
5333;SDS011;2689;50.954;7.116;2023-06-10T02:20:25;8.10;;;6.70;;
5333;SDS011;2689;50.954;7.116;2023-06-10T02:22:52;10.90;;;7.90;;
5333;SDS011;2689;50.954;7.116;2023-06-10T02:25:19;9.77;;;8.67;;
5333;SDS011;2689;50.954;7.116;2023-06-10T02:27:46;8.63;;;7.70;;
5333;SDS011;2689;50.954;7.116;2023-06-10T02:30:14;11.30;;;8.23;;
5333;SDS011;2689;50.954;7.116;2023-06-10T02:32:41;9.50;;;8.50;;
5333;SDS011;2689;50.954;7.116;2023-06-10T02:35:09;16.83;;;8.87;;
5333;SDS011;2689;50.954;7.116;2023-06-10T02:37:37;9.30;;;8.30;;
5333;SDS011;2689;50.954;7.116;2023-06-10T02:40:04;11.53;;;9.90;;
5333;SDS011;2689;50.954;7.116;2023-06-10T02:42:32;9.10;;;8.13;;
5333;SDS011;2689;50.954;7.116;2023-06-10T02:44:59;10.40;;;9.30;;
5333;SDS011;2689;50.954;7.116;2023-06-10T02:47:27;10.53;;;9.53;;
5333;SDS011;2689;50.954;7.116;2023-06-10T02:49:54;10.90;;;9.83;;
5333;SDS011;2689;50.954;7.116;2023-06-10T02:52:21;10.30;;;9.20;;
5333;SDS011;2689;50.954;7.116;2023-06-10T02:54:48;11.10;;;10.13;;
5333;SDS011;2689;50.954;7.116;2023-06-10T02:57:14;11.20;;;9.93;;
5333;SDS011;2689;50.954;7.116;2023-06-10T02:59:41;13.63;;;9.80;;
5333;SDS011;2689;50.954;7.116;2023-06-10T03:02:08;10.50;;;9.40;;
5333;SDS011;2689;50.954;7.116;2023-06-10T03:04:37;12.17;;;9.60;;
5333;SDS011;2689;50.954;7.116;2023-06-10T03:07:04;12.93;;;10.73;;
5333;SDS011;2689;50.954;7.116;2023-06-10T03:09:32;12.80;;;10.27;;
5333;SDS011;2689;50.954;7.116;2023-06-10T03:11:59;11.77;;;10.50;;
5333;SDS011;2689;50.954;7.116;2023-06-10T03:14:26;10.87;;;9.80;;
5333;SDS011;2689;50.954;7.116;2023-06-10T03:16:53;10.80;;;9.80;;
5333;SDS011;2689;50.954;7.116;2023-06-10T03:19:20;11.37;;;10.27;;
5333;SDS011;2689;50.954;7.116;2023-06-10T03:22:07;11.63;;;9.83;;
5333;SDS011;2689;50.954;7.116;2023-06-10T03:24:34;12.27;;;10.13;;
5333;SDS011;2689;50.954;7.116;2023-06-10T03:27:05;11.70;;;9.67;;
5333;SDS011;2689;50.954;7.116;2023-06-10T03:29:32;11.00;;;9.63;;
5333;SDS011;2689;50.954;7.116;2023-06-10T03:31:59;12.20;;;10.93;;
5333;SDS011;2689;50.954;7.116;2023-06-10T03:34:26;11.33;;;10.23;;
5333;SDS011;2689;50.954;7.116;2023-06-10T03:36:54;12.40;;;11.10;;
5333;SDS011;2689;50.954;7.116;2023-06-10T03:39:21;11.80;;;10.70;;
5333;SDS011;2689;50.954;7.116;2023-06-10T03:41:48;14.97;;;10.53;;
5333;SDS011;2689;50.954;7.116;2023-06-10T03:44:15;12.63;;;9.87;;
5333;SDS011;2689;50.954;7.116;2023-06-10T03:46:41;12.40;;;11.23;;
5333;SDS011;2689;50.954;7.116;2023-06-10T03:49:08;12.07;;;10.73;;
5333;SDS011;2689;50.954;7.116;2023-06-10T03:51:35;12.13;;;10.80;;
5333;SDS011;2689;50.954;7.116;2023-06-10T03:54:04;12.67;;;11.20;;
5333;SDS011;2689;50.954;7.116;2023-06-10T03:56:31;12.77;;;10.80;;
5333;SDS011;2689;50.954;7.116;2023-06-10T03:58:57;12.27;;;11.07;;
5333;SDS011;2689;50.954;7.116;2023-06-10T04:01:25;12.50;;;11.20;;
5333;SDS011;2689;50.954;7.116;2023-06-10T04:03:52;15.27;;;10.53;;
5333;SDS011;2689;50.954;7.116;2023-06-10T04:06:20;13.03;;;11.13;;
5333;SDS011;2689;50.954;7.116;2023-06-10T04:08:47;12.90;;;11.30;;
5333;SDS011;2689;50.954;7.116;2023-06-10T04:11:15;12.37;;;11.10;;
5333;SDS011;2689;50.954;7.116;2023-06-10T04:13:42;12.57;;;11.37;;
5333;SDS011;2689;50.954;7.116;2023-06-10T04:16:09;13.40;;;12.20;;
5333;SDS011;2689;50.954;7.116;2023-06-10T04:18:36;13.63;;;11.70;;
5333;SDS011;2689;50.954;7.116;2023-06-10T04:21:03;12.47;;;11.00;;
5333;SDS011;2689;50.954;7.116;2023-06-10T04:23:30;12.07;;;10.43;;
5333;SDS011;2689;50.954;7.116;2023-06-10T04:25:57;11.90;;;10.77;;
5333;SDS011;2689;50.954;7.116;2023-06-10T04:28:26;13.20;;;11.90;;
5333;SDS011;2689;50.954;7.116;2023-06-10T04:30:53;16.13;;;11.50;;
5333;SDS011;2689;50.954;7.116;2023-06-10T04:33:20;13.70;;;12.30;;
5333;SDS011;2689;50.954;7.116;2023-06-10T04:35:46;13.40;;;11.43;;
5333;SDS011;2689;50.954;7.116;2023-06-10T04:38:13;12.50;;;11.27;;
5333;SDS011;2689;50.954;7.116;2023-06-10T04:40:40;12.43;;;11.27;;
5333;SDS011;2689;50.954;7.116;2023-06-10T04:43:07;13.00;;;11.70;;
5333;SDS011;2689;50.954;7.116;2023-06-10T04:45:35;11.70;;;10.60;;
5333;SDS011;2689;50.954;7.116;2023-06-10T04:48:01;13.23;;;11.87;;
5333;SDS011;2689;50.954;7.116;2023-06-10T04:50:28;12.13;;;10.80;;
5333;SDS011;2689;50.954;7.116;2023-06-10T04:52:57;13.33;;;11.10;;
5333;SDS011;2689;50.954;7.116;2023-06-10T04:55:23;13.73;;;11.80;;
5333;SDS011;2689;50.954;7.116;2023-06-10T04:57:50;14.63;;;12.17;;
5333;SDS011;2689;50.954;7.116;2023-06-10T05:00:17;11.97;;;10.77;;
5333;SDS011;2689;50.954;7.116;2023-06-10T05:02:45;12.17;;;10.90;;
5333;SDS011;2689;50.954;7.116;2023-06-10T05:05:14;13.03;;;11.27;;
5333;SDS011;2689;50.954;7.116;2023-06-10T05:07:41;15.73;;;12.03;;
5333;SDS011;2689;50.954;7.116;2023-06-10T05:10:08;14.60;;;13.13;;
5333;SDS011;2689;50.954;7.116;2023-06-10T05:12:38;15.03;;;12.53;;
5333;SDS011;2689;50.954;7.116;2023-06-10T05:15:05;11.63;;;10.53;;
5333;SDS011;2689;50.954;7.116;2023-06-10T05:17:32;13.83;;;12.10;;
5333;SDS011;2689;50.954;7.116;2023-06-10T05:20:01;12.63;;;11.33;;
5333;SDS011;2689;50.954;7.116;2023-06-10T05:22:28;12.53;;;11.33;;
5333;SDS011;2689;50.954;7.116;2023-06-10T05:24:55;16.53;;;11.47;;
5333;SDS011;2689;50.954;7.116;2023-06-10T05:27:22;13.57;;;12.23;;
5333;SDS011;2689;50.954;7.116;2023-06-10T05:29:49;12.47;;;11.27;;
5333;SDS011;2689;50.954;7.116;2023-06-10T05:32:16;12.33;;;11.17;;
5333;SDS011;2689;50.954;7.116;2023-06-10T05:34:43;14.00;;;12.00;;
5333;SDS011;2689;50.954;7.116;2023-06-10T05:37:12;15.30;;;13.70;;
5333;SDS011;2689;50.954;7.116;2023-06-10T05:39:39;12.37;;;11.07;;
5333;SDS011;2689;50.954;7.116;2023-06-10T05:42:06;15.90;;;11.00;;
5333;SDS011;2689;50.954;7.116;2023-06-10T05:44:34;11.10;;;9.97;;
5333;SDS011;2689;50.954;7.116;2023-06-10T05:47:01;12.83;;;11.50;;
5333;SDS011;2689;50.954;7.116;2023-06-10T05:49:27;13.90;;;10.77;;
5333;SDS011;2689;50.954;7.116;2023-06-10T05:51:54;11.50;;;10.40;;
5333;SDS011;2689;50.954;7.116;2023-06-10T05:54:25;16.30;;;11.40;;
5333;SDS011;2689;50.954;7.116;2023-06-10T05:56:52;12.20;;;10.30;;
5333;SDS011;2689;50.954;7.116;2023-06-10T05:59:18;10.90;;;9.90;;
5333;SDS011;2689;50.954;7.116;2023-06-10T06:01:45;12.53;;;9.90;;
5333;SDS011;2689;50.954;7.116;2023-06-10T06:04:12;12.07;;;10.50;;
5333;SDS011;2689;50.954;7.116;2023-06-10T06:06:39;11.07;;;9.87;;
5333;SDS011;2689;50.954;7.116;2023-06-10T06:09:06;12.27;;;10.53;;
5333;SDS011;2689;50.954;7.116;2023-06-10T06:11:34;11.60;;;9.60;;
5333;SDS011;2689;50.954;7.116;2023-06-10T06:14:01;11.03;;;9.90;;
5333;SDS011;2689;50.954;7.116;2023-06-10T06:16:28;9.47;;;8.40;;
5333;SDS011;2689;50.954;7.116;2023-06-10T06:18:55;12.00;;;8.30;;
5333;SDS011;2689;50.954;7.116;2023-06-10T06:21:21;14.27;;;9.43;;
5333;SDS011;2689;50.954;7.116;2023-06-10T06:23:48;9.50;;;8.60;;
5333;SDS011;2689;50.954;7.116;2023-06-10T06:26:15;9.13;;;7.90;;
5333;SDS011;2689;50.954;7.116;2023-06-10T06:28:43;9.00;;;7.80;;
5333;SDS011;2689;50.954;7.116;2023-06-10T06:31:10;8.20;;;6.87;;
5333;SDS011;2689;50.954;7.116;2023-06-10T06:33:37;9.27;;;7.60;;
5333;SDS011;2689;50.954;7.116;2023-06-10T06:36:05;9.30;;;7.17;;
5333;SDS011;2689;50.954;7.116;2023-06-10T06:38:31;8.33;;;6.83;;
5333;SDS011;2689;50.954;7.116;2023-06-10T06:40:58;8.33;;;6.70;;
5333;SDS011;2689;50.954;7.116;2023-06-10T06:43:28;9.77;;;6.80;;
5333;SDS011;2689;50.954;7.116;2023-06-10T06:45:57;7.87;;;6.83;;
5333;SDS011;2689;50.954;7.116;2023-06-10T06:48:24;8.07;;;6.10;;
5333;SDS011;2689;50.954;7.116;2023-06-10T06:50:50;7.50;;;6.80;;
5333;SDS011;2689;50.954;7.116;2023-06-10T06:53:17;8.17;;;6.43;;
5333;SDS011;2689;50.954;7.116;2023-06-10T06:55:44;14.70;;;7.53;;
5333;SDS011;2689;50.954;7.116;2023-06-10T06:58:11;8.30;;;6.87;;
5333;SDS011;2689;50.954;7.116;2023-06-10T07:00:37;6.57;;;5.60;;
5333;SDS011;2689;50.954;7.116;2023-06-10T07:03:05;7.40;;;5.93;;
5333;SDS011;2689;50.954;7.116;2023-06-10T07:05:32;8.07;;;6.47;;
5333;SDS011;2689;50.954;7.116;2023-06-10T07:07:59;6.67;;;5.77;;
5333;SDS011;2689;50.954;7.116;2023-06-10T07:10:26;8.60;;;5.90;;
5333;SDS011;2689;50.954;7.116;2023-06-10T07:12:53;6.87;;;6.17;;
5333;SDS011;2689;50.954;7.116;2023-06-10T07:15:20;6.93;;;6.23;;
5333;SDS011;2689;50.954;7.116;2023-06-10T07:17:46;6.40;;;5.33;;
5333;SDS011;2689;50.954;7.116;2023-06-10T07:20:15;6.40;;;5.43;;
5333;SDS011;2689;50.954;7.116;2023-06-10T07:22:43;8.50;;;5.50;;
5333;SDS011;2689;50.954;7.116;2023-06-10T07:25:09;6.40;;;5.30;;
5333;SDS011;2689;50.954;7.116;2023-06-10T07:27:36;7.20;;;5.97;;
5333;SDS011;2689;50.954;7.116;2023-06-10T07:30:03;8.33;;;5.93;;
5333;SDS011;2689;50.954;7.116;2023-06-10T07:32:33;8.20;;;5.97;;
5333;SDS011;2689;50.954;7.116;2023-06-10T07:35:00;8.50;;;5.70;;
5333;SDS011;2689;50.954;7.116;2023-06-10T07:37:28;5.93;;;5.33;;
5333;SDS011;2689;50.954;7.116;2023-06-10T07:39:55;8.63;;;5.70;;
5333;SDS011;2689;50.954;7.116;2023-06-10T07:42:22;6.80;;;5.30;;
5333;SDS011;2689;50.954;7.116;2023-06-10T07:44:49;9.87;;;5.67;;
5333;SDS011;2689;50.954;7.116;2023-06-10T07:47:16;6.00;;;5.40;;
5333;SDS011;2689;50.954;7.116;2023-06-10T07:49:43;9.27;;;6.07;;
5333;SDS011;2689;50.954;7.116;2023-06-10T07:52:09;6.20;;;5.60;;
5333;SDS011;2689;50.954;7.116;2023-06-10T07:54:37;10.10;;;5.97;;
5333;SDS011;2689;50.954;7.116;2023-06-10T07:57:04;8.60;;;5.80;;
5333;SDS011;2689;50.954;7.116;2023-06-10T07:59:32;5.67;;;5.10;;
5333;SDS011;2689;50.954;7.116;2023-06-10T08:01:59;6.73;;;6.03;;
5333;SDS011;2689;50.954;7.116;2023-06-10T08:04:26;5.83;;;5.23;;
5333;SDS011;2689;50.954;7.116;2023-06-10T08:06:53;6.30;;;5.43;;
5333;SDS011;2689;50.954;7.116;2023-06-10T08:09:20;6.67;;;5.40;;
5333;SDS011;2689;50.954;7.116;2023-06-10T08:11:49;7.17;;;5.10;;
5333;SDS011;2689;50.954;7.116;2023-06-10T08:14:16;11.30;;;5.33;;
5333;SDS011;2689;50.954;7.116;2023-06-10T08:16:43;11.03;;;6.47;;
5333;SDS011;2689;50.954;7.116;2023-06-10T08:19:11;7.83;;;5.60;;
5333;SDS011;2689;50.954;7.116;2023-06-10T08:21:38;8.03;;;6.03;;
5333;SDS011;2689;50.954;7.116;2023-06-10T08:24:05;9.47;;;5.53;;
5333;SDS011;2689;50.954;7.116;2023-06-10T08:26:32;9.90;;;6.00;;
5333;SDS011;2689;50.954;7.116;2023-06-10T08:29:01;7.10;;;5.40;;
5333;SDS011;2689;50.954;7.116;2023-06-10T08:31:27;8.43;;;5.40;;
5333;SDS011;2689;50.954;7.116;2023-06-10T08:34:10;7.10;;;5.10;;
5333;SDS011;2689;50.954;7.116;2023-06-10T08:36:37;8.80;;;5.50;;
5333;SDS011;2689;50.954;7.116;2023-06-10T08:39:04;6.97;;;5.63;;
5333;SDS011;2689;50.954;7.116;2023-06-10T08:41:32;8.43;;;5.90;;
5333;SDS011;2689;50.954;7.116;2023-06-10T08:44:10;7.30;;;5.77;;
5333;SDS011;2689;50.954;7.116;2023-06-10T08:46:43;10.90;;;5.40;;
5333;SDS011;2689;50.954;7.116;2023-06-10T08:49:11;7.47;;;5.27;;
5333;SDS011;2689;50.954;7.116;2023-06-10T08:51:45;6.10;;;5.10;;
5333;SDS011;2689;50.954;7.116;2023-06-10T08:54:17;6.83;;;4.73;;
5333;SDS011;2689;50.954;7.116;2023-06-10T08:56:48;6.00;;;4.97;;
5333;SDS011;2689;50.954;7.116;2023-06-10T08:59:17;7.77;;;6.40;;
5333;SDS011;2689;50.954;7.116;2023-06-10T09:01:46;7.40;;;5.83;;
5333;SDS011;2689;50.954;7.116;2023-06-10T09:04:13;7.63;;;5.50;;
5333;SDS011;2689;50.954;7.116;2023-06-10T09:06:41;5.30;;;4.77;;
5333;SDS011;2689;50.954;7.116;2023-06-10T09:09:08;14.43;;;5.20;;
5333;SDS011;2689;50.954;7.116;2023-06-10T09:11:36;14.40;;;5.20;;
5333;SDS011;2689;50.954;7.116;2023-06-10T09:14:04;11.90;;;4.90;;
5333;SDS011;2689;50.954;7.116;2023-06-10T09:16:32;8.77;;;5.17;;
5333;SDS011;2689;50.954;7.116;2023-06-10T09:19:01;8.60;;;5.10;;
5333;SDS011;2689;50.954;7.116;2023-06-10T09:21:33;8.13;;;6.40;;
5333;SDS011;2689;50.954;7.116;2023-06-10T09:24:00;9.47;;;5.33;;
5333;SDS011;2689;50.954;7.116;2023-06-10T09:26:28;7.17;;;4.50;;
5333;SDS011;2689;50.954;7.116;2023-06-10T09:28:58;7.07;;;5.57;;
5333;SDS011;2689;50.954;7.116;2023-06-10T09:31:29;6.80;;;5.00;;
5333;SDS011;2689;50.954;7.116;2023-06-10T09:34:05;6.50;;;5.13;;
5333;SDS011;2689;50.954;7.116;2023-06-10T09:36:33;7.27;;;5.13;;
5333;SDS011;2689;50.954;7.116;2023-06-10T09:39:00;9.20;;;4.73;;
5333;SDS011;2689;50.954;7.116;2023-06-10T09:41:31;9.33;;;5.50;;
5333;SDS011;2689;50.954;7.116;2023-06-10T09:43:59;7.30;;;5.20;;
5333;SDS011;2689;50.954;7.116;2023-06-10T09:46:29;10.87;;;5.70;;
5333;SDS011;2689;50.954;7.116;2023-06-10T09:48:58;6.40;;;5.03;;
5333;SDS011;2689;50.954;7.116;2023-06-10T09:51:26;7.07;;;5.20;;
5333;SDS011;2689;50.954;7.116;2023-06-10T09:53:53;5.67;;;5.10;;
5333;SDS011;2689;50.954;7.116;2023-06-10T09:56:20;7.33;;;6.00;;
5333;SDS011;2689;50.954;7.116;2023-06-10T09:58:58;8.50;;;5.60;;
5333;SDS011;2689;50.954;7.116;2023-06-10T10:01:25;7.53;;;5.33;;
5333;SDS011;2689;50.954;7.116;2023-06-10T10:03:52;5.27;;;4.77;;
5333;SDS011;2689;50.954;7.116;2023-06-10T10:06:19;6.20;;;5.43;;
5333;SDS011;2689;50.954;7.116;2023-06-10T10:08:48;6.57;;;4.93;;
5333;SDS011;2689;50.954;7.116;2023-06-10T10:11:16;5.87;;;4.90;;
5333;SDS011;2689;50.954;7.116;2023-06-10T10:13:47;8.90;;;4.50;;
5333;SDS011;2689;50.954;7.116;2023-06-10T10:16:16;8.23;;;5.50;;
5333;SDS011;2689;50.954;7.116;2023-06-10T10:18:45;7.37;;;4.73;;
5333;SDS011;2689;50.954;7.116;2023-06-10T10:21:15;8.10;;;5.50;;
5333;SDS011;2689;50.954;7.116;2023-06-10T10:23:47;7.90;;;4.77;;
5333;SDS011;2689;50.954;7.116;2023-06-10T10:26:19;4.77;;;4.23;;
5333;SDS011;2689;50.954;7.116;2023-06-10T10:28:48;5.83;;;4.43;;
5333;SDS011;2689;50.954;7.116;2023-06-10T10:31:19;6.00;;;5.17;;
5333;SDS011;2689;50.954;7.116;2023-06-10T10:33:50;9.07;;;5.10;;
5333;SDS011;2689;50.954;7.116;2023-06-10T10:36:21;6.47;;;3.83;;
5333;SDS011;2689;50.954;7.116;2023-06-10T10:38:48;8.90;;;4.20;;
5333;SDS011;2689;50.954;7.116;2023-06-10T10:41:16;6.67;;;4.60;;
5333;SDS011;2689;50.954;7.116;2023-06-10T10:43:45;9.87;;;5.10;;
5333;SDS011;2689;50.954;7.116;2023-06-10T10:46:14;6.33;;;4.40;;
5333;SDS011;2689;50.954;7.116;2023-06-10T10:48:42;11.87;;;5.70;;
5333;SDS011;2689;50.954;7.116;2023-06-10T10:51:10;6.07;;;4.70;;
5333;SDS011;2689;50.954;7.116;2023-06-10T10:53:37;6.73;;;3.80;;
5333;SDS011;2689;50.954;7.116;2023-06-10T10:56:05;8.10;;;4.93;;
5333;SDS011;2689;50.954;7.116;2023-06-10T10:58:34;5.70;;;3.97;;
5333;SDS011;2689;50.954;7.116;2023-06-10T11:01:09;7.37;;;4.60;;
5333;SDS011;2689;50.954;7.116;2023-06-10T11:03:41;7.47;;;4.60;;
5333;SDS011;2689;50.954;7.116;2023-06-10T11:06:11;6.80;;;5.03;;
5333;SDS011;2689;50.954;7.116;2023-06-10T11:08:45;7.27;;;4.23;;
5333;SDS011;2689;50.954;7.116;2023-06-10T11:11:17;5.90;;;4.60;;
5333;SDS011;2689;50.954;7.116;2023-06-10T11:13:59;5.87;;;4.50;;
5333;SDS011;2689;50.954;7.116;2023-06-10T11:16:37;5.57;;;4.40;;
5333;SDS011;2689;50.954;7.116;2023-06-10T11:19:05;6.97;;;4.53;;
5333;SDS011;2689;50.954;7.116;2023-06-10T11:21:32;5.03;;;4.53;;
5333;SDS011;2689;50.954;7.116;2023-06-10T11:24:23;6.67;;;4.20;;
5333;SDS011;2689;50.954;7.116;2023-06-10T11:26:51;8.23;;;3.90;;
5333;SDS011;2689;50.954;7.116;2023-06-10T11:29:19;7.50;;;4.37;;
5333;SDS011;2689;50.954;7.116;2023-06-10T11:31:49;10.43;;;4.57;;
5333;SDS011;2689;50.954;7.116;2023-06-10T11:34:23;6.13;;;4.80;;
5333;SDS011;2689;50.954;7.116;2023-06-10T11:36:52;11.10;;;6.30;;
5333;SDS011;2689;50.954;7.116;2023-06-10T11:39:20;7.83;;;5.43;;
5333;SDS011;2689;50.954;7.116;2023-06-10T11:41:48;6.43;;;5.03;;
5333;SDS011;2689;50.954;7.116;2023-06-10T11:44:16;6.37;;;5.33;;
5333;SDS011;2689;50.954;7.116;2023-06-10T11:46:44;8.00;;;6.50;;
5333;SDS011;2689;50.954;7.116;2023-06-10T11:49:14;7.53;;;4.13;;
5333;SDS011;2689;50.954;7.116;2023-06-10T11:51:41;7.60;;;4.90;;
5333;SDS011;2689;50.954;7.116;2023-06-10T11:54:14;7.93;;;4.53;;
5333;SDS011;2689;50.954;7.116;2023-06-10T11:56:41;7.53;;;4.63;;
5333;SDS011;2689;50.954;7.116;2023-06-10T11:59:08;5.93;;;4.77;;
5333;SDS011;2689;50.954;7.116;2023-06-10T12:01:36;5.27;;;3.97;;
5333;SDS011;2689;50.954;7.116;2023-06-10T12:04:07;6.00;;;4.13;;
5333;SDS011;2689;50.954;7.116;2023-06-10T12:06:39;6.40;;;4.50;;
5333;SDS011;2689;50.954;7.116;2023-06-10T12:09:07;6.13;;;4.17;;
5333;SDS011;2689;50.954;7.116;2023-06-10T12:11:40;5.77;;;4.80;;
5333;SDS011;2689;50.954;7.116;2023-06-10T12:14:08;5.70;;;4.43;;
5333;SDS011;2689;50.954;7.116;2023-06-10T12:16:37;6.90;;;4.47;;
5333;SDS011;2689;50.954;7.116;2023-06-10T12:19:04;4.97;;;4.07;;
5333;SDS011;2689;50.954;7.116;2023-06-10T12:21:33;5.60;;;3.93;;
5333;SDS011;2689;50.954;7.116;2023-06-10T12:24:05;10.30;;;5.10;;
5333;SDS011;2689;50.954;7.116;2023-06-10T12:26:37;5.33;;;4.30;;
5333;SDS011;2689;50.954;7.116;2023-06-10T12:31:59;6.47;;;4.67;;
5333;SDS011;2689;50.954;7.116;2023-06-10T12:34:31;5.10;;;3.83;;
5333;SDS011;2689;50.954;7.116;2023-06-10T12:37:02;4.80;;;4.10;;
5333;SDS011;2689;50.954;7.116;2023-06-10T12:39:30;6.23;;;4.50;;
5333;SDS011;2689;50.954;7.116;2023-06-10T12:41:58;5.20;;;4.70;;
5333;SDS011;2689;50.954;7.116;2023-06-10T12:44:31;5.00;;;3.97;;
5333;SDS011;2689;50.954;7.116;2023-06-10T12:47:00;10.60;;;4.10;;
5333;SDS011;2689;50.954;7.116;2023-06-10T12:49:32;7.63;;;5.10;;
5333;SDS011;2689;50.954;7.116;2023-06-10T12:52:01;11.27;;;4.73;;
5333;SDS011;2689;50.954;7.116;2023-06-10T12:54:28;6.50;;;4.30;;
5333;SDS011;2689;50.954;7.116;2023-06-10T12:56:55;7.93;;;4.70;;
5333;SDS011;2689;50.954;7.116;2023-06-10T12:59:22;5.27;;;3.90;;
5333;SDS011;2689;50.954;7.116;2023-06-10T13:01:51;7.47;;;4.83;;
5333;SDS011;2689;50.954;7.116;2023-06-10T13:04:19;5.90;;;4.67;;
5333;SDS011;2689;50.954;7.116;2023-06-10T13:06:47;7.30;;;4.23;;
5333;SDS011;2689;50.954;7.116;2023-06-10T13:09:15;7.00;;;4.70;;
5333;SDS011;2689;50.954;7.116;2023-06-10T13:11:42;6.67;;;5.03;;
5333;SDS011;2689;50.954;7.116;2023-06-10T13:14:09;5.53;;;4.37;;
5333;SDS011;2689;50.954;7.116;2023-06-10T13:16:37;4.13;;;3.67;;
5333;SDS011;2689;50.954;7.116;2023-06-10T13:19:04;6.40;;;4.50;;
5333;SDS011;2689;50.954;7.116;2023-06-10T13:21:31;7.20;;;3.90;;
5333;SDS011;2689;50.954;7.116;2023-06-10T13:23:59;9.67;;;3.90;;
5333;SDS011;2689;50.954;7.116;2023-06-10T13:26:27;5.87;;;4.00;;
5333;SDS011;2689;50.954;7.116;2023-06-10T13:28:54;5.90;;;4.30;;
5333;SDS011;2689;50.954;7.116;2023-06-10T13:31:21;6.47;;;4.20;;
5333;SDS011;2689;50.954;7.116;2023-06-10T13:33:47;6.17;;;3.70;;
5333;SDS011;2689;50.954;7.116;2023-06-10T13:36:14;4.90;;;3.90;;
5333;SDS011;2689;50.954;7.116;2023-06-10T13:38:41;5.93;;;4.00;;
5333;SDS011;2689;50.954;7.116;2023-06-10T13:41:08;6.17;;;3.50;;
5333;SDS011;2689;50.954;7.116;2023-06-10T13:43:36;8.53;;;4.20;;
5333;SDS011;2689;50.954;7.116;2023-06-10T13:46:03;4.90;;;3.90;;
5333;SDS011;2689;50.954;7.116;2023-06-10T13:48:30;5.57;;;4.00;;
5333;SDS011;2689;50.954;7.116;2023-06-10T13:50:57;7.40;;;4.10;;
5333;SDS011;2689;50.954;7.116;2023-06-10T13:53:25;7.90;;;4.33;;
5333;SDS011;2689;50.954;7.116;2023-06-10T13:55:52;5.70;;;3.93;;
5333;SDS011;2689;50.954;7.116;2023-06-10T13:58:19;5.83;;;5.23;;
5333;SDS011;2689;50.954;7.116;2023-06-10T14:00:47;7.60;;;4.63;;
5333;SDS011;2689;50.954;7.116;2023-06-10T14:03:14;13.43;;;4.30;;
5333;SDS011;2689;50.954;7.116;2023-06-10T14:05:41;6.37;;;4.33;;
5333;SDS011;2689;50.954;7.116;2023-06-10T14:08:08;7.70;;;4.27;;
5333;SDS011;2689;50.954;7.116;2023-06-10T14:10:35;7.50;;;4.33;;
5333;SDS011;2689;50.954;7.116;2023-06-10T14:13:01;7.17;;;3.60;;
5333;SDS011;2689;50.954;7.116;2023-06-10T14:15:28;7.73;;;4.40;;
5333;SDS011;2689;50.954;7.116;2023-06-10T14:17:57;5.50;;;4.43;;
5333;SDS011;2689;50.954;7.116;2023-06-10T14:20:24;5.13;;;4.17;;
5333;SDS011;2689;50.954;7.116;2023-06-10T14:22:51;7.53;;;4.70;;
5333;SDS011;2689;50.954;7.116;2023-06-10T14:25:18;6.33;;;5.43;;
5333;SDS011;2689;50.954;7.116;2023-06-10T14:27:45;5.17;;;4.30;;
5333;SDS011;2689;50.954;7.116;2023-06-10T14:30:12;6.40;;;5.40;;
5333;SDS011;2689;50.954;7.116;2023-06-10T14:32:40;5.60;;;4.70;;
5333;SDS011;2689;50.954;7.116;2023-06-10T14:35:08;7.07;;;4.70;;
5333;SDS011;2689;50.954;7.116;2023-06-10T14:37:35;10.27;;;4.83;;
5333;SDS011;2689;50.954;7.116;2023-06-10T14:40:03;7.13;;;4.50;;
5333;SDS011;2689;50.954;7.116;2023-06-10T14:42:30;5.10;;;4.50;;
5333;SDS011;2689;50.954;7.116;2023-06-10T14:44:58;8.97;;;4.70;;
5333;SDS011;2689;50.954;7.116;2023-06-10T14:47:24;4.97;;;4.13;;
5333;SDS011;2689;50.954;7.116;2023-06-10T14:49:51;4.90;;;4.00;;
5333;SDS011;2689;50.954;7.116;2023-06-10T14:52:19;6.30;;;4.17;;
5333;SDS011;2689;50.954;7.116;2023-06-10T14:54:46;7.33;;;4.60;;
5333;SDS011;2689;50.954;7.116;2023-06-10T14:57:13;6.90;;;4.03;;
5333;SDS011;2689;50.954;7.116;2023-06-10T14:59:40;7.93;;;4.90;;
5333;SDS011;2689;50.954;7.116;2023-06-10T15:02:06;6.97;;;3.97;;
5333;SDS011;2689;50.954;7.116;2023-06-10T15:04:33;9.67;;;4.57;;
5333;SDS011;2689;50.954;7.116;2023-06-10T15:07:00;9.20;;;4.73;;
5333;SDS011;2689;50.954;7.116;2023-06-10T15:09:28;9.13;;;4.80;;
5333;SDS011;2689;50.954;7.116;2023-06-10T15:11:55;11.57;;;5.40;;
5333;SDS011;2689;50.954;7.116;2023-06-10T15:14:22;6.80;;;4.80;;
5333;SDS011;2689;50.954;7.116;2023-06-10T15:16:48;5.47;;;4.07;;